Time;durP1;ratioP1;P1;durP2;ratioP2;P2;SDS_P1;SDS_P2;PMS_P1;PMS_P2;Temp;Humidity;BMP_temperature;BMP_pressure;BME280_temperature;BME280_humidity;BME280_pressure;Samples;Min_cycle;Max_cycle;Signal;HPM_P1;HPM_P2
2021/12/22 00:01:52;;;;;;;16.93;11.20;;;-4.90;99.90;;;;;;4915794;29;20234;-74
2021/12/22 00:04:22;;;;;;;15.37;9.60;;;-4.90;99.90;;;;;;4915770;29;20587;-73
2021/12/22 00:06:48;;;;;;;17.83;10.40;;;-4.90;99.90;;;;;;4915743;29;20981;-75
2021/12/22 00:09:14;;;;;;;20.90;10.23;;;-4.90;99.90;;;;;;4915596;29;20556;-73
2021/12/22 00:11:40;;;;;;;18.87;10.73;;;-4.90;99.90;;;;;;4915599;29;20509;-74
2021/12/22 00:14:06;;;;;;;17.03;10.60;;;-5.00;99.90;;;;;;4915425;29;20178;-74
2021/12/22 00:16:31;;;;;;;17.50;10.50;;;-5.00;99.90;;;;;;4915506;29;20562;-75
2021/12/22 00:18:57;;;;;;;16.43;10.50;;;-5.10;99.90;;;;;;4915670;29;20600;-73
2021/12/22 00:21:22;;;;;;;17.67;10.20;;;-5.10;99.90;;;;;;4914181;29;20210;-74
2021/12/22 00:23:48;;;;;;;17.90;9.97;;;-5.10;99.90;;;;;;4915434;29;20206;-74
2021/12/22 00:26:15;;;;;;;16.20;10.27;;;-5.10;99.90;;;;;;4915341;29;20178;-74
2021/12/22 00:28:41;;;;;;;19.17;10.63;;;-5.10;99.90;;;;;;4915572;29;20202;-74
2021/12/22 00:31:12;;;;;;;17.47;11.30;;;-5.20;99.90;;;;;;4914930;29;20734;-74
2021/12/22 00:33:46;;;;;;;19.27;10.70;;;-5.10;99.90;;;;;;4914865;29;20415;-74
2021/12/22 00:36:12;;;;;;;20.00;10.33;;;-5.20;99.90;;;;;;4915236;29;20418;-74
2021/12/22 00:38:37;;;;;;;16.27;9.97;;;-5.20;99.90;;;;;;4915346;29;20811;-74
2021/12/22 00:41:04;;;;;;;18.60;9.80;;;-5.20;99.90;;;;;;4915011;29;20457;-73
2021/12/22 00:43:29;;;;;;;18.50;9.70;;;-5.20;99.90;;;;;;4915166;29;20265;-74
2021/12/22 00:45:56;;;;;;;16.70;9.27;;;-5.30;99.90;;;;;;4915219;29;20446;-74
2021/12/22 00:48:22;;;;;;;15.90;10.50;;;-5.30;99.90;;;;;;4915245;29;20352;-74
2021/12/22 00:50:48;;;;;;;21.33;9.63;;;-5.30;99.90;;;;;;4915121;29;20410;-74
2021/12/22 00:53:14;;;;;;;18.37;11.47;;;-5.30;99.90;;;;;;4915029;29;20897;-74
2021/12/22 00:55:40;;;;;;;18.80;10.63;;;-5.30;99.90;;;;;;4915170;29;20445;-74
2021/12/22 00:58:05;;;;;;;24.80;11.80;;;-5.30;99.90;;;;;;4913918;29;20424;-74
2021/12/22 05:32:28;;;;;;;22.63;12.90;;;-6.50;99.90;;;;;;5131462;23;20505;-75
2021/12/22 05:34:54;;;;;;;26.50;11.20;;;-6.50;99.90;;;;;;4914978;29;20418;-75
2021/12/22 05:37:19;;;;;;;22.70;12.70;;;-6.50;99.90;;;;;;4916098;29;20425;-75
2021/12/22 05:39:45;;;;;;;20.90;10.90;;;-6.50;99.90;;;;;;4915300;29;20198;-75
2021/12/22 05:42:10;;;;;;;24.60;12.50;;;-6.50;99.90;;;;;;4899432;29;20194;-75
2021/12/22 05:44:36;;;;;;;27.00;12.70;;;-6.50;99.90;;;;;;4912862;29;20291;-75
2021/12/22 05:47:02;;;;;;;25.83;11.47;;;-6.60;99.90;;;;;;4902042;29;20210;-75
2021/12/22 05:49:27;;;;;;;21.17;12.20;;;-6.60;99.90;;;;;;4915794;29;20273;-73
2021/12/22 05:51:53;;;;;;;26.90;11.10;;;-6.60;99.90;;;;;;4915540;29;20434;-75
2021/12/22 05:54:19;;;;;;;19.60;11.43;;;-6.60;99.90;;;;;;4915611;29;20186;-75
2021/12/22 05:56:44;;;;;;;20.50;11.70;;;-6.50;99.90;;;;;;4915749;29;20207;-75
2021/12/22 05:59:10;;;;;;;19.37;11.27;;;-6.50;99.90;;;;;;4916997;29;20178;-75
2021/12/22 06:01:36;;;;;;;22.80;12.67;;;-6.50;99.90;;;;;;4915040;29;20624;-75
2021/12/22 06:04:03;;;;;;;23.50;11.37;;;-6.40;99.90;;;;;;4916746;29;20741;-75
2021/12/22 06:06:28;;;;;;;23.93;12.97;;;-6.40;99.90;;;;;;4916977;29;20209;-75
2021/12/22 06:08:54;;;;;;;20.37;10.53;;;-6.40;99.90;;;;;;4917020;29;20493;-75
2021/12/22 06:11:19;;;;;;;20.73;10.93;;;-6.40;99.90;;;;;;4915207;29;20457;-75
2021/12/22 06:13:45;;;;;;;26.43;13.07;;;-6.40;99.90;;;;;;4916699;29;20233;-75
2021/12/22 06:16:11;;;;;;;23.93;12.33;;;-6.50;99.90;;;;;;4917057;29;20174;-75
2021/12/22 06:18:42;;;;;;;22.00;11.63;;;-6.50;99.90;;;;;;4917141;29;20232;-74
2021/12/22 06:21:08;;;;;;;22.80;13.47;;;-6.60;99.90;;;;;;4916436;29;20203;-74
2021/12/22 06:23:34;;;;;;;19.63;12.20;;;-6.50;99.90;;;;;;4916047;29;20537;-74
2021/12/22 06:25:59;;;;;;;22.93;11.00;;;-6.50;99.90;;;;;;4916597;29;20484;-75
2021/12/22 06:28:25;;;;;;;23.93;11.50;;;-6.60;99.90;;;;;;4916661;29;20209;-75
2021/12/22 06:30:51;;;;;;;23.07;14.00;;;-6.50;99.90;;;;;;4914998;29;20190;-74
2021/12/22 06:33:16;;;;;;;19.13;12.17;;;-6.50;99.90;;;;;;4916038;29;20266;-75
2021/12/22 06:35:42;;;;;;;24.87;14.00;;;-6.60;99.90;;;;;;4916549;29;20182;-75
2021/12/22 06:38:07;;;;;;;21.17;11.77;;;-6.60;99.90;;;;;;4916465;29;20179;-72
2021/12/22 06:40:33;;;;;;;21.30;13.23;;;-6.60;99.90;;;;;;4916376;29;20276;-75
2021/12/22 06:42:59;;;;;;;24.57;11.67;;;-6.50;99.90;;;;;;4915453;29;20414;-75
2021/12/22 06:45:24;;;;;;;24.27;11.63;;;-6.50;99.90;;;;;;4916361;29;20237;-74
2021/12/22 06:47:52;;;;;;;31.03;11.30;;;-6.50;99.90;;;;;;4915327;29;20198;-75
2021/12/22 06:50:18;;;;;;;20.13;11.60;;;-6.60;99.90;;;;;;4916048;29;20253;-75
2021/12/22 06:52:44;;;;;;;25.07;12.40;;;-6.60;99.90;;;;;;4915897;29;20431;-73
2021/12/22 06:55:09;;;;;;;25.13;13.47;;;-6.60;99.90;;;;;;4915423;29;20493;-74
2021/12/22 06:57:35;;;;;;;17.80;11.50;;;-6.60;99.90;;;;;;4916241;29;20179;-75
2021/12/22 07:00:04;;;;;;;22.70;12.93;;;-6.70;99.90;;;;;;4915863;29;20250;-75
2021/12/22 07:02:35;;;;;;;22.37;12.87;;;-6.70;99.90;;;;;;4915947;29;20564;-75
2021/12/22 07:05:00;;;;;;;18.70;12.20;;;-6.70;99.90;;;;;;4915651;29;20466;-75
2021/12/22 07:07:26;;;;;;;34.83;13.73;;;-6.70;99.90;;;;;;4916113;29;21316;-75
2021/12/22 07:09:51;;;;;;;30.73;14.00;;;-6.70;99.90;;;;;;4915464;29;20170;-74
2021/12/22 07:12:17;;;;;;;22.70;12.00;;;-6.70;99.90;;;;;;4915858;29;20202;-72
2021/12/22 07:14:42;;;;;;;21.50;13.43;;;-6.70;99.90;;;;;;4915474;29;20186;-75
2021/12/22 07:17:09;;;;;;;24.57;13.17;;;-6.50;99.90;;;;;;4915354;29;20253;-72
2021/12/22 07:19:35;;;;;;;20.77;13.13;;;-6.50;99.90;;;;;;4915200;29;20186;-74
2021/12/22 07:22:00;;;;;;;25.60;14.57;;;-6.50;99.90;;;;;;4915270;29;20446;-73
2021/12/22 07:24:26;;;;;;;24.67;13.53;;;-6.40;99.90;;;;;;4912813;29;20288;-74
2021/12/22 07:26:51;;;;;;;27.17;12.70;;;-6.40;99.90;;;;;;4913277;29;20190;-74
2021/12/22 07:29:17;;;;;;;26.90;13.10;;;-6.40;99.90;;;;;;4915112;29;20214;-75
2021/12/22 07:31:42;;;;;;;19.67;12.47;;;-6.40;99.90;;;;;;4915119;29;20270;-74
2021/12/22 07:34:11;;;;;;;25.33;13.17;;;-6.40;99.90;;;;;;4913978;29;20272;-72
2021/12/22 07:37:22;;;;;;;22.50;13.37;;;-6.40;99.90;;;;;;4915207;29;20916;-74
2021/12/22 07:39:48;;;;;;;20.73;12.13;;;-6.30;99.90;;;;;;4915233;29;20457;-72
2021/12/22 07:42:14;;;;;;;21.60;11.30;;;-6.20;99.90;;;;;;4914559;29;21032;-74
2021/12/22 07:44:40;;;;;;;27.23;16.33;;;-6.20;99.90;;;;;;4913669;29;20413;-75
2021/12/22 07:47:06;;;;;;;28.57;15.10;;;-6.20;99.90;;;;;;4915995;29;20793;-74
2021/12/22 07:49:31;;;;;;;27.20;13.70;;;-6.30;99.90;;;;;;4915167;29;20201;-74
2021/12/22 07:51:57;;;;;;;25.67;13.20;;;-6.20;99.90;;;;;;4917947;29;20261;-75
2021/12/22 07:54:22;;;;;;;20.80;12.17;;;-6.20;99.90;;;;;;4915797;29;20285;-74
2021/12/22 07:56:48;;;;;;;24.20;14.30;;;-6.10;99.90;;;;;;4914691;29;20244;-73
2021/12/22 07:59:13;;;;;;;19.43;10.97;;;-6.00;99.90;;;;;;4914841;29;20178;-74
2021/12/22 08:01:39;;;;;;;27.87;12.60;;;-5.90;99.90;;;;;;4912421;29;20683;-74
2021/12/22 08:04:04;;;;;;;29.13;14.50;;;-5.90;99.90;;;;;;4914110;29;20205;-74
2021/12/22 08:06:30;;;;;;;31.90;13.13;;;-5.80;99.90;;;;;;4914258;29;20535;-74
2021/12/22 08:08:55;;;;;;;29.57;13.83;;;-5.80;99.90;;;;;;4914870;29;20663;-74
2021/12/22 08:11:21;;;;;;;21.50;13.30;;;-5.70;99.90;;;;;;4914088;29;20909;-73
2021/12/22 08:13:47;;;;;;;26.80;12.93;;;-5.60;99.90;;;;;;4914030;29;20597;-74
2021/12/22 08:16:12;;;;;;;26.47;13.80;;;-5.60;99.90;;;;;;4914708;29;20175;-75
2021/12/22 08:18:38;;;;;;;24.23;13.13;;;-5.50;99.90;;;;;;4914124;29;20194;-74
2021/12/22 08:21:03;;;;;;;26.40;13.23;;;-5.50;99.90;;;;;;4913536;29;20295;-74
2021/12/22 08:23:29;;;;;;;26.93;14.13;;;-5.30;99.90;;;;;;4914002;29;20186;-74
2021/12/22 08:25:55;;;;;;;24.47;14.80;;;-5.20;99.90;;;;;;4914643;29;20601;-74
2021/12/22 08:28:20;;;;;;;25.07;12.33;;;-5.20;99.90;;;;;;4914572;29;20289;-74
2021/12/22 08:30:47;;;;;;;24.33;13.47;;;-5.10;99.90;;;;;;4913590;29;20278;-74
2021/12/22 08:33:25;;;;;;;21.37;12.57;;;-5.10;99.90;;;;;;4913350;29;20536;-74
2021/12/22 08:38:55;;;;;;;23.90;13.50;;;-4.90;99.90;;;;;;4914729;29;20481;-74
2021/12/22 08:41:22;;;;;;;30.50;14.40;;;-4.80;99.90;;;;;;4913134;29;20416;-74
2021/12/22 08:43:49;;;;;;;22.50;14.27;;;-4.70;99.90;;;;;;4913572;29;20437;-74
2021/12/22 08:46:15;;;;;;;22.07;15.10;;;-4.60;99.90;;;;;;4914145;29;20418;-73
2021/12/22 08:48:41;;;;;;;34.97;14.50;;;-4.50;99.90;;;;;;4912774;29;20569;-73
2021/12/22 08:51:06;;;;;;;30.63;15.10;;;-4.40;99.90;;;;;;4912885;29;20513;-74
2021/12/22 08:53:32;;;;;;;27.27;14.93;;;-4.30;99.90;;;;;;4914258;29;20217;-73
2021/12/22 08:55:57;;;;;;;30.53;15.97;;;-4.20;99.90;;;;;;4920435;29;20773;-74
2021/12/22 08:58:23;;;;;;;39.03;17.47;;;-4.10;99.90;;;;;;4920394;29;20651;-73
2021/12/22 09:00:48;;;;;;;39.60;17.70;;;-4.00;99.90;;;;;;4919681;29;20209;-75
2021/12/22 09:03:14;;;;;;;37.13;16.63;;;-3.90;99.90;;;;;;4919409;29;20189;-73
2021/12/22 09:05:39;;;;;;;31.80;17.20;;;-3.70;99.90;;;;;;4920504;29;20636;-74
2021/12/22 09:08:05;;;;;;;33.00;17.40;;;-3.50;99.90;;;;;;4920449;29;20600;-74
2021/12/22 09:10:31;;;;;;;39.73;20.33;;;-3.30;99.90;;;;;;4919736;29;20183;-74
2021/12/22 09:12:56;;;;;;;37.20;19.97;;;-3.00;99.90;;;;;;4919959;29;20206;-73
2021/12/22 09:15:22;;;;;;;35.07;17.53;;;-2.70;99.90;;;;;;4920123;29;20669;-76
2021/12/22 09:17:47;;;;;;;29.20;16.33;;;-2.00;99.90;;;;;;4920544;29;20176;-73
2021/12/22 09:20:14;;;;;;;25.07;15.73;;;-1.20;99.90;;;;;;4919959;29;20192;-74
2021/12/22 09:22:39;;;;;;;24.53;15.53;;;-0.60;99.90;;;;;;4920245;29;20205;-73
2021/12/22 09:25:05;;;;;;;27.67;15.93;;;0.10;99.90;;;;;;4919719;29;20407;-74
2021/12/22 09:27:31;;;;;;;25.30;15.43;;;1.00;99.90;;;;;;4920302;29;20683;-74
2021/12/22 09:29:56;;;;;;;28.13;16.47;;;1.20;99.90;;;;;;4919702;29;20454;-74
2021/12/22 09:32:22;;;;;;;27.50;17.70;;;1.90;99.90;;;;;;4919762;29;20275;-75
2021/12/22 09:34:51;;;;;;;27.03;16.20;;;2.70;99.90;;;;;;4919656;29;20170;-72
2021/12/22 09:37:19;;;;;;;24.30;15.50;;;3.20;99.90;;;;;;4919553;29;20384;-74
2021/12/22 09:39:44;;;;;;;22.67;15.33;;;3.80;99.90;;;;;;4919673;29;20953;-74
2021/12/22 09:42:10;;;;;;;24.87;15.83;;;4.10;99.90;;;;;;4919285;29;20447;-74
2021/12/22 09:44:43;;;;;;;24.60;15.67;;;4.00;99.90;;;;;;4919445;29;20202;-73
2021/12/22 09:47:11;;;;;;;28.60;17.43;;;4.10;99.90;;;;;;4919234;29;20418;-72
2021/12/22 09:49:48;;;;;;;26.50;17.57;;;4.30;99.90;;;;;;4919577;29;20468;-73
2021/12/22 09:52:26;;;;;;;30.03;18.03;;;4.10;99.90;;;;;;4919565;29;20963;-73
2021/12/22 09:54:55;;;;;;;26.20;16.37;;;4.30;99.90;;;;;;4919128;29;20471;-73
2021/12/22 09:57:22;;;;;;;27.00;16.70;;;4.40;99.90;;;;;;4920008;29;20400;-74
2021/12/22 09:59:49;;;;;;;24.97;15.87;;;4.80;99.90;;;;;;4919534;29;21037;-72
2021/12/22 10:02:17;;;;;;;23.60;14.60;;;4.80;99.90;;;;;;4919502;29;20448;-73
2021/12/22 10:04:43;;;;;;;21.70;14.63;;;4.60;99.90;;;;;;4919291;29;20425;-73
2021/12/22 10:07:16;;;;;;;16.67;12.60;;;4.70;99.90;;;;;;4914981;29;20431;-72
2021/12/22 10:09:43;;;;;;;21.50;14.60;;;4.70;99.90;;;;;;4915331;29;20700;-73
2021/12/22 10:12:14;;;;;;;20.83;12.30;;;4.50;99.90;;;;;;4916236;29;20517;-73
2021/12/22 10:14:53;;;;;;;20.83;14.60;;;4.50;99.90;;;;;;4915702;29;20412;-73
2021/12/22 10:17:41;;;;;;;20.73;13.60;;;4.60;99.90;;;;;;4916604;29;20838;-73
2021/12/22 10:20:12;;;;;;;23.47;13.30;;;4.10;99.90;;;;;;4916144;29;20414;-73
2021/12/22 10:22:41;;;;;;;26.93;14.73;;;4.20;99.90;;;;;;4916414;29;20782;-73
2021/12/22 10:25:10;;;;;;;20.50;14.00;;;4.20;99.90;;;;;;4915900;29;20473;-74
2021/12/22 10:27:37;;;;;;;25.30;14.40;;;4.20;99.90;;;;;;4915918;29;20819;-73
2021/12/22 10:30:41;;;;;;;20.63;13.53;;;4.20;99.90;;;;;;4915732;29;20422;-74
2021/12/22 10:33:14;;;;;;;23.80;12.80;;;4.30;99.90;;;;;;4915316;29;20425;-72
2021/12/22 10:35:43;;;;;;;21.70;12.37;;;4.30;99.90;;;;;;4916490;29;20389;-73
2021/12/22 10:38:11;;;;;;;23.10;12.07;;;4.20;99.90;;;;;;4915573;29;20430;-74
2021/12/22 10:40:42;;;;;;;22.30;14.30;;;4.20;99.90;;;;;;4915754;29;20411;-73
2021/12/22 10:43:24;;;;;;;25.70;13.70;;;4.20;99.90;;;;;;4914786;29;20411;-72
2021/12/22 10:45:53;;;;;;;20.13;12.10;;;4.10;99.90;;;;;;4916169;29;20437;-73
2021/12/22 10:51:11;;;;;;;22.20;13.60;;;4.20;99.90;;;;;;4915352;29;20548;-73
2021/12/22 10:53:45;;;;;;;19.27;12.30;;;3.80;99.90;;;;;;4915532;29;20415;-73
2021/12/22 10:56:28;;;;;;;18.30;13.27;;;3.80;99.90;;;;;;4915168;29;20867;-73
2021/12/22 10:59:09;;;;;;;21.33;13.57;;;4.00;99.90;;;;;;4915910;29;20502;-75
2021/12/22 11:01:38;;;;;;;20.40;13.27;;;4.00;99.90;;;;;;4914952;29;20449;-74
2021/12/22 11:04:14;;;;;;;22.77;13.30;;;4.10;99.90;;;;;;4915297;29;20791;-74
2021/12/22 11:06:40;;;;;;;18.63;13.03;;;4.10;99.90;;;;;;4915886;29;20569;-73
2021/12/22 11:09:13;;;;;;;19.53;12.50;;;4.10;99.90;;;;;;4915806;29;20914;-74
2021/12/22 11:11:49;;;;;;;21.20;13.90;;;4.10;99.90;;;;;;4915206;29;20210;-73
2021/12/22 11:14:16;;;;;;;18.53;11.97;;;4.20;99.90;;;;;;4914285;29;20398;-75
2021/12/22 11:17:21;;;;;;;21.00;12.70;;;4.00;99.90;;;;;;4915459;29;21258;-72
2021/12/22 11:20:01;;;;;;;23.97;13.47;;;3.70;99.90;;;;;;4913952;29;21191;-73
2021/12/22 11:22:40;;;;;;;20.03;13.03;;;3.70;99.90;;;;;;4915053;29;20424;-73
2021/12/22 11:25:11;;;;;;;21.00;13.37;;;3.70;99.90;;;;;;4916714;29;20433;-74
2021/12/22 11:27:37;;;;;;;23.50;13.77;;;3.60;99.90;;;;;;4915739;29;20418;-72
2021/12/22 11:30:04;;;;;;;21.60;12.57;;;3.60;99.90;;;;;;4914157;29;20404;-74
2021/12/22 11:32:31;;;;;;;19.87;13.77;;;3.40;99.90;;;;;;4915453;29;20440;-73
2021/12/22 11:35:07;;;;;;;21.30;13.77;;;3.30;99.90;;;;;;4914277;29;20482;-73
2021/12/22 11:37:33;;;;;;;25.47;14.03;;;3.20;99.90;;;;;;4915224;29;20418;-72
2021/12/22 11:39:59;;;;;;;24.13;13.70;;;3.30;99.90;;;;;;4914786;29;20426;-72
2021/12/22 11:42:31;;;;;;;16.30;12.20;;;3.30;99.90;;;;;;4914947;29;20947;-72
2021/12/22 11:45:07;;;;;;;24.10;14.30;;;3.30;99.90;;;;;;4914138;29;20422;-72
2021/12/22 11:47:39;;;;;;;20.30;13.93;;;3.10;99.90;;;;;;4915072;29;20419;-72
2021/12/22 11:50:12;;;;;;;21.30;13.93;;;3.10;99.90;;;;;;4914665;29;20430;-73
2021/12/22 11:52:43;;;;;;;26.80;14.20;;;3.00;99.90;;;;;;4914388;29;20457;-73
2021/12/22 11:55:40;;;;;;;20.50;13.07;;;3.10;99.90;;;;;;4914200;29;20411;-72
2021/12/22 11:58:16;;;;;;;21.00;13.53;;;3.00;99.90;;;;;;4913030;29;20435;-73
2021/12/22 12:00:58;;;;;;;22.23;12.83;;;3.20;99.90;;;;;;4914542;29;20808;-72
2021/12/22 12:03:30;;;;;;;21.97;14.13;;;3.20;99.90;;;;;;4914042;29;20426;-72
2021/12/22 12:06:03;;;;;;;23.57;15.17;;;3.10;99.90;;;;;;4914487;29;20763;-72
2021/12/22 12:08:37;;;;;;;20.47;14.13;;;3.10;99.90;;;;;;4914485;29;20831;-72
2021/12/22 12:11:11;;;;;;;24.97;14.97;;;3.10;99.90;;;;;;4914132;29;20424;-72
2021/12/22 12:21:58;;;;;;;35.83;15.93;;;2.60;99.90;;;;;;4914128;29;20410;-73
2021/12/22 12:24:44;;;;;;;26.77;15.50;;;2.20;99.90;;;;;;4914010;29;20457;-72
2021/12/22 12:27:40;;;;;;;23.30;15.37;;;2.10;99.90;;;;;;4905611;29;20929;-73
2021/12/22 12:30:17;;;;;;;24.80;13.80;;;2.10;99.90;;;;;;4896454;29;20787;-73
2021/12/22 12:32:54;;;;;;;24.13;14.60;;;2.20;99.90;;;;;;4896471;29;20883;-73
2021/12/22 12:35:23;;;;;;;21.87;14.00;;;2.20;99.90;;;;;;4895461;29;20441;-73
2021/12/22 12:38:08;;;;;;;22.23;14.10;;;2.20;99.90;;;;;;4894534;29;20479;-73
2021/12/22 12:41:11;;;;;;;24.70;15.53;;;2.10;99.90;;;;;;4894888;29;20832;-73
2021/12/22 12:43:43;;;;;;;21.00;14.13;;;2.20;99.90;;;;;;4894668;29;20386;-74
2021/12/22 12:46:20;;;;;;;25.53;15.07;;;2.20;99.90;;;;;;4897517;29;20441;-74
2021/12/22 12:48:51;;;;;;;21.57;13.90;;;2.20;99.90;;;;;;4894967;29;20839;-74
2021/12/22 12:51:31;;;;;;;24.50;14.67;;;2.30;99.90;;;;;;4894875;29;20885;-74
2021/12/22 12:54:07;;;;;;;23.80;14.00;;;2.30;99.90;;;;;;4900374;29;20983;-73
2021/12/22 12:56:38;;;;;;;30.00;15.20;;;2.20;99.90;;;;;;4895121;29;20425;-73
2021/12/22 12:59:06;;;;;;;26.23;15.70;;;2.20;99.90;;;;;;4895124;29;20756;-73
2021/12/22 13:01:47;;;;;;;25.53;14.80;;;2.10;99.90;;;;;;4894562;29;20478;-73
2021/12/22 13:04:27;;;;;;;26.30;15.83;;;2.10;99.90;;;;;;4894510;29;20437;-73
2021/12/22 13:06:53;;;;;;;26.30;14.40;;;2.20;99.90;;;;;;4894590;29;20813;-73
2021/12/22 13:09:31;;;;;;;27.83;14.47;;;2.10;99.90;;;;;;4894886;29;20447;-74
2021/12/22 13:17:38;;;;;;;25.70;14.03;;;2.10;99.90;;;;;;4895483;29;20858;-74
2021/12/22 13:20:05;;;;;;;29.30;14.93;;;2.10;99.90;;;;;;4894450;29;20442;-72
2021/12/22 13:22:33;;;;;;;26.70;14.50;;;2.00;99.90;;;;;;4894882;29;20442;-73
2021/12/22 13:25:11;;;;;;;25.10;15.63;;;2.00;99.90;;;;;;4893607;29;20403;-74
2021/12/22 13:27:45;;;;;;;29.10;16.40;;;1.90;99.90;;;;;;4895014;29;20419;-73
2021/12/22 13:30:12;;;;;;;26.07;14.90;;;1.80;99.90;;;;;;4894133;29;20434;-73
2021/12/22 13:33:15;;;;;;;23.20;14.17;;;1.90;99.90;;;;;;4894655;29;20467;-73
2021/12/22 13:35:47;;;;;;;23.67;14.93;;;2.00;99.90;;;;;;4855403;29;20515;-73
2021/12/22 13:38:21;;;;;;;22.93;14.70;;;1.90;99.90;;;;;;4888363;29;20403;-73
2021/12/22 13:40:55;;;;;;;24.40;15.80;;;1.90;99.90;;;;;;4896125;29;20438;-72
2021/12/22 13:43:37;;;;;;;23.90;14.20;;;1.90;99.90;;;;;;4897860;29;20417;-73
2021/12/22 13:46:10;;;;;;;23.37;13.90;;;1.90;99.90;;;;;;4898632;29;20390;-74
2021/12/22 13:48:49;;;;;;;30.23;15.03;;;1.90;99.90;;;;;;4897960;29;20997;-74
2021/12/22 13:51:17;;;;;;;24.30;14.33;;;1.90;99.90;;;;;;4897737;29;20816;-74
2021/12/22 13:53:44;;;;;;;24.97;15.00;;;1.90;99.90;;;;;;4897759;29;20425;-73
2021/12/22 13:56:12;;;;;;;25.80;14.77;;;1.90;99.90;;;;;;4898079;29;20421;-73
2021/12/22 13:58:39;;;;;;;24.40;14.00;;;1.90;99.90;;;;;;4898564;29;20402;-72
2021/12/22 14:01:26;;;;;;;25.70;14.70;;;1.90;99.90;;;;;;4897249;29;20418;-72
2021/12/22 14:04:01;;;;;;;22.73;13.30;;;1.90;99.90;;;;;;4896307;29;20462;-72
2021/12/22 14:06:34;;;;;;;32.60;15.13;;;1.90;99.90;;;;;;4897897;29;20531;-72
2021/12/22 14:09:26;;;;;;;25.73;15.53;;;1.90;99.90;;;;;;4896293;29;20448;-73
2021/12/22 14:12:01;;;;;;;26.23;15.60;;;1.90;99.90;;;;;;4897795;29;21020;-72
2021/12/22 14:14:34;;;;;;;23.10;14.70;;;1.90;99.90;;;;;;4896335;29;20377;-73
2021/12/22 14:17:03;;;;;;;32.60;15.33;;;1.90;99.90;;;;;;4881546;29;20382;-74
2021/12/22 14:19:31;;;;;;;20.27;14.37;;;1.90;99.90;;;;;;4896077;29;20762;-72
2021/12/22 14:22:07;;;;;;;21.90;14.10;;;1.90;99.90;;;;;;4896324;29;20418;-72
2021/12/22 14:24:38;;;;;;;22.17;14.10;;;1.90;99.90;;;;;;4895932;29;20850;-72
2021/12/22 14:27:06;;;;;;;24.33;13.13;;;1.90;99.90;;;;;;4897690;29;20422;-73
2021/12/22 14:29:32;;;;;;;29.67;15.67;;;1.90;99.90;;;;;;4895806;29;21008;-72
2021/12/22 14:32:00;;;;;;;26.17;14.17;;;1.90;99.90;;;;;;4895615;29;20958;-71
2021/12/22 14:34:26;;;;;;;25.60;15.07;;;1.80;99.90;;;;;;4896947;29;20386;-72
2021/12/22 14:36:52;;;;;;;32.93;17.17;;;1.80;99.90;;;;;;4897506;29;20479;-71
2021/12/22 14:39:19;;;;;;;27.90;14.10;;;1.70;99.90;;;;;;4896513;29;20395;-71
2021/12/22 14:41:46;;;;;;;23.47;12.60;;;1.70;99.90;;;;;;4897307;29;20461;-72
2021/12/22 14:44:23;;;;;;;27.67;15.60;;;1.70;99.90;;;;;;4896730;29;20933;-72
2021/12/22 14:46:51;;;;;;;24.87;15.03;;;1.70;99.90;;;;;;4898112;29;20400;-72
2021/12/22 14:49:23;;;;;;;25.03;14.50;;;1.70;99.90;;;;;;4898635;29;20515;-72
2021/12/22 14:51:50;;;;;;;25.37;15.30;;;1.60;99.90;;;;;;4895816;29;20462;-71
2021/12/22 14:54:21;;;;;;;24.23;14.53;;;1.60;99.90;;;;;;4895305;29;20479;-72
2021/12/22 14:56:52;;;;;;;20.43;13.23;;;1.50;99.90;;;;;;4897065;29;20479;-72
2021/12/22 14:59:19;;;;;;;22.57;13.67;;;1.50;99.90;;;;;;4897141;29;20841;-71
2021/12/22 15:01:46;;;;;;;26.20;15.10;;;1.50;99.90;;;;;;4896571;29;20411;-71
2021/12/22 15:04:12;;;;;;;27.97;15.10;;;1.50;99.90;;;;;;4896110;29;20749;-72
2021/12/22 15:06:38;;;;;;;37.13;16.80;;;1.40;99.90;;;;;;4896470;29;20588;-72
2021/12/22 15:09:05;;;;;;;23.50;14.07;;;1.40;99.90;;;;;;4897093;29;20992;-72
2021/12/22 15:11:31;;;;;;;27.20;14.60;;;1.40;99.90;;;;;;4896199;29;20197;-73
2021/12/22 15:13:57;;;;;;;25.63;13.50;;;1.30;99.90;;;;;;4896379;29;20763;-71
2021/12/22 15:16:26;;;;;;;26.30;16.00;;;1.30;99.90;;;;;;4903552;29;20420;-73
2021/12/22 15:18:53;;;;;;;25.33;14.90;;;1.30;99.90;;;;;;4899111;29;20510;-72
2021/12/22 15:21:20;;;;;;;24.30;15.17;;;1.20;99.90;;;;;;4896289;29;20442;-71
2021/12/22 15:23:47;;;;;;;26.50;16.23;;;1.10;99.90;;;;;;4895919;29;20932;-72
2021/12/22 15:26:14;;;;;;;30.80;16.70;;;1.10;99.90;;;;;;4895535;29;20398;-71
2021/12/22 15:28:39;;;;;;;27.30;15.13;;;1.10;99.90;;;;;;4895934;29;20441;-73
2021/12/22 15:31:05;;;;;;;29.13;17.20;;;1.10;99.90;;;;;;4894675;29;20511;-72
2021/12/22 15:33:33;;;;;;;36.77;18.33;;;1.00;99.90;;;;;;4895683;29;20175;-72
2021/12/22 15:35:59;;;;;;;30.23;17.13;;;1.00;99.90;;;;;;4896795;29;20409;-72
2021/12/22 15:38:25;;;;;;;34.60;17.40;;;1.00;99.90;;;;;;4895713;29;20406;-72
2021/12/22 15:40:52;;;;;;;40.93;17.50;;;1.00;99.90;;;;;;4895848;29;20244;-71
2021/12/22 15:43:17;;;;;;;30.93;17.23;;;0.90;99.90;;;;;;4895559;29;20398;-71
2021/12/22 15:45:43;;;;;;;29.80;16.60;;;0.90;99.90;;;;;;4896472;29;20397;-72
2021/12/22 15:48:09;;;;;;;32.93;18.40;;;0.90;99.90;;;;;;4896032;29;20418;-73
2021/12/22 15:50:35;;;;;;;42.93;24.17;;;0.90;99.90;;;;;;4895394;29;20481;-78
2021/12/22 15:53:02;;;;;;;31.63;19.73;;;0.90;99.90;;;;;;4895782;29;20398;-78
2021/12/22 15:55:27;;;;;;;32.50;19.30;;;0.90;99.90;;;;;;4896161;29;20427;-75
2021/12/22 15:57:53;;;;;;;32.07;16.30;;;0.80;99.90;;;;;;4896582;29;20501;-75
2021/12/22 16:00:23;;;;;;;63.60;24.97;;;0.70;99.90;;;;;;4896184;29;20183;-75
2021/12/22 16:02:50;;;;;;;38.63;19.13;;;0.70;99.90;;;;;;4895005;29;20203;-75
2021/12/22 16:05:15;;;;;;;30.73;16.23;;;0.60;99.90;;;;;;4895493;29;20390;-75
2021/12/22 16:07:41;;;;;;;31.43;14.90;;;0.60;99.90;;;;;;4895762;29;20442;-76
2021/12/22 16:10:09;;;;;;;33.07;16.30;;;0.50;99.90;;;;;;4895712;29;20215;-76
2021/12/22 16:12:35;;;;;;;25.73;15.97;;;0.40;99.90;;;;;;4895846;29;20202;-75
2021/12/22 16:15:01;;;;;;;40.53;17.77;;;0.40;99.90;;;;;;4895547;29;20789;-75
2021/12/22 16:17:27;;;;;;;30.20;17.10;;;0.30;99.90;;;;;;4895351;29;20387;-76
2021/12/22 16:19:53;;;;;;;31.93;15.70;;;0.20;99.90;;;;;;4895739;29;20477;-76
2021/12/22 16:22:19;;;;;;;26.23;16.37;;;0.10;99.90;;;;;;4896165;29;20286;-76
2021/12/22 16:24:46;;;;;;;27.33;15.80;;;0.00;99.90;;;;;;4895988;29;20893;-75
2021/12/22 16:27:12;;;;;;;26.80;15.43;;;-0.10;99.90;;;;;;4895723;29;20767;-75
2021/12/22 16:29:40;;;;;;;28.10;16.30;;;-0.20;99.90;;;;;;4895205;29;20440;-75
2021/12/22 16:32:06;;;;;;;29.30;16.03;;;-0.30;99.90;;;;;;4895399;29;20214;-76
2021/12/22 16:34:31;;;;;;;26.80;15.20;;;-0.30;99.90;;;;;;4895046;29;20995;-75
2021/12/22 16:36:57;;;;;;;36.17;16.60;;;-0.40;99.90;;;;;;4895315;29;20424;-76
2021/12/22 16:39:22;;;;;;;28.37;14.30;;;-0.40;99.90;;;;;;4895169;29;20190;-76
2021/12/22 16:41:48;;;;;;;28.83;15.20;;;-0.60;99.90;;;;;;4895402;29;20212;-74
2021/12/22 16:44:14;;;;;;;30.20;15.73;;;-0.60;99.90;;;;;;4899335;29;20194;-75
2021/12/22 16:46:39;;;;;;;27.83;16.63;;;-0.70;99.90;;;;;;4896975;29;20219;-75
2021/12/22 16:49:05;;;;;;;26.83;15.70;;;-0.80;99.90;;;;;;4895261;29;21047;-75
2021/12/22 16:51:31;;;;;;;24.57;14.80;;;-0.80;99.90;;;;;;4893240;29;20203;-75
2021/12/22 16:53:57;;;;;;;25.07;14.53;;;-0.90;99.90;;;;;;4895065;29;20187;-75
2021/12/22 16:56:22;;;;;;;24.97;14.50;;;-1.00;99.90;;;;;;4895574;29;20417;-76
2021/12/22 16:58:48;;;;;;;25.37;14.53;;;-1.10;99.90;;;;;;4895454;29;20572;-74
2021/12/22 17:01:15;;;;;;;26.47;13.23;;;-1.20;99.90;;;;;;4894410;29;20561;-79
2021/12/22 17:03:41;;;;;;;29.17;15.87;;;-1.30;99.90;;;;;;4896261;29;20268;-78
2021/12/22 17:06:07;;;;;;;27.90;14.90;;;-1.30;99.90;;;;;;4896398;29;20970;-78
2021/12/22 17:08:38;;;;;;;25.80;14.00;;;-1.40;99.90;;;;;;4896732;29;20474;-79
2021/12/22 17:11:03;;;;;;;22.13;13.53;;;-1.40;99.90;;;;;;4896266;29;21058;-79
2021/12/22 17:13:29;;;;;;;23.53;13.60;;;-1.50;99.90;;;;;;4895863;29;20414;-79
2021/12/22 17:15:55;;;;;;;26.33;14.60;;;-1.50;99.90;;;;;;4896888;29;20189;-78
2021/12/22 17:18:20;;;;;;;29.40;14.77;;;-1.50;99.90;;;;;;4899936;29;20282;-79
2021/12/22 17:20:46;;;;;;;23.03;14.00;;;-1.60;99.90;;;;;;4899390;29;20281;-79
2021/12/22 17:23:12;;;;;;;29.13;15.30;;;-1.70;99.90;;;;;;4898929;29;20196;-78
2021/12/22 17:25:38;;;;;;;24.23;13.83;;;-1.70;99.90;;;;;;4898984;29;20234;-78
2021/12/22 17:28:05;;;;;;;18.90;13.53;;;-1.80;99.90;;;;;;4898802;29;20455;-78
2021/12/22 17:30:32;;;;;;;28.10;15.73;;;-1.80;99.90;;;;;;4898304;29;20185;-78
2021/12/22 17:32:59;;;;;;;26.98;15.30;;;-1.80;99.90;;;;;;4909706;29;20939;-79
2021/12/22 17:35:26;;;;;;;27.53;15.30;;;-1.90;99.90;;;;;;4917781;29;20181;-78